sensor_id;sensor_type;location;lat;lon;timestamp;P1;durP1;ratioP1;P2;durP2;ratioP2
16272;SDS011;8244;50.044;9.006;2023-06-04T00:03:38;4.25;;;1.60;;
16272;SDS011;8244;50.044;9.006;2023-06-04T00:08:40;6.07;;;1.77;;
16272;SDS011;8244;50.044;9.006;2023-06-04T00:13:43;3.83;;;1.70;;
16272;SDS011;8244;50.044;9.006;2023-06-04T00:18:45;3.78;;;1.80;;
16272;SDS011;8244;50.044;9.006;2023-06-04T00:23:46;5.90;;;1.73;;
16272;SDS011;8244;50.044;9.006;2023-06-04T00:28:49;2.38;;;1.80;;
16272;SDS011;8244;50.044;9.006;2023-06-04T00:33:51;3.38;;;1.67;;
16272;SDS011;8244;50.044;9.006;2023-06-04T00:38:53;2.13;;;1.55;;
16272;SDS011;8244;50.044;9.006;2023-06-04T00:43:56;3.10;;;1.70;;
16272;SDS011;8244;50.044;9.006;2023-06-04T00:48:58;3.60;;;1.90;;
16272;SDS011;8244;50.044;9.006;2023-06-04T00:54:00;4.57;;;1.92;;
16272;SDS011;8244;50.044;9.006;2023-06-04T00:59:10;8.50;;;1.80;;
16272;SDS011;8244;50.044;9.006;2023-06-04T01:04:14;6.13;;;1.80;;
16272;SDS011;8244;50.044;9.006;2023-06-04T01:09:21;4.63;;;1.60;;
16272;SDS011;8244;50.044;9.006;2023-06-04T01:14:25;3.45;;;1.60;;
16272;SDS011;8244;50.044;9.006;2023-06-04T01:19:33;5.78;;;1.65;;
16272;SDS011;8244;50.044;9.006;2023-06-04T01:25:02;4.35;;;1.63;;
16272;SDS011;8244;50.044;9.006;2023-06-04T01:30:07;4.55;;;1.70;;
16272;SDS011;8244;50.044;9.006;2023-06-04T01:35:11;4.50;;;1.50;;
16272;SDS011;8244;50.044;9.006;2023-06-04T01:40:13;8.48;;;1.67;;
16272;SDS011;8244;50.044;9.006;2023-06-04T01:45:16;3.58;;;1.58;;
16272;SDS011;8244;50.044;9.006;2023-06-04T01:50:18;3.80;;;1.75;;
16272;SDS011;8244;50.044;9.006;2023-06-04T01:55:20;4.20;;;2.00;;
16272;SDS011;8244;50.044;9.006;2023-06-04T02:00:23;5.22;;;1.80;;
16272;SDS011;8244;50.044;9.006;2023-06-04T02:05:25;3.30;;;1.80;;
16272;SDS011;8244;50.044;9.006;2023-06-04T02:10:27;2.53;;;1.70;;
16272;SDS011;8244;50.044;9.006;2023-06-04T02:15:31;3.97;;;1.70;;
16272;SDS011;8244;50.044;9.006;2023-06-04T02:20:33;3.25;;;1.70;;
16272;SDS011;8244;50.044;9.006;2023-06-04T02:25:35;3.38;;;1.63;;
16272;SDS011;8244;50.044;9.006;2023-06-04T02:30:38;5.15;;;1.60;;
16272;SDS011;8244;50.044;9.006;2023-06-04T02:35:40;4.22;;;1.90;;
16272;SDS011;8244;50.044;9.006;2023-06-04T02:40:42;3.75;;;1.80;;
16272;SDS011;8244;50.044;9.006;2023-06-04T02:45:45;3.55;;;1.80;;
16272;SDS011;8244;50.044;9.006;2023-06-04T02:50:47;4.63;;;1.80;;
16272;SDS011;8244;50.044;9.006;2023-06-04T02:55:48;5.88;;;1.70;;
16272;SDS011;8244;50.044;9.006;2023-06-04T03:00:52;4.95;;;1.90;;
16272;SDS011;8244;50.044;9.006;2023-06-04T03:05:54;4.03;;;2.00;;
16272;SDS011;8244;50.044;9.006;2023-06-04T03:10:55;5.70;;;1.70;;
16272;SDS011;8244;50.044;9.006;2023-06-04T03:15:59;2.38;;;1.70;;
16272;SDS011;8244;50.044;9.006;2023-06-04T03:21:01;5.18;;;2.10;;
16272;SDS011;8244;50.044;9.006;2023-06-04T03:26:03;2.83;;;1.70;;
16272;SDS011;8244;50.044;9.006;2023-06-04T03:31:06;3.28;;;1.77;;
16272;SDS011;8244;50.044;9.006;2023-06-04T03:36:08;5.28;;;1.50;;
16272;SDS011;8244;50.044;9.006;2023-06-04T03:41:10;4.45;;;1.55;;
16272;SDS011;8244;50.044;9.006;2023-06-04T03:46:13;3.17;;;1.70;;
16272;SDS011;8244;50.044;9.006;2023-06-04T03:51:15;5.25;;;1.88;;
16272;SDS011;8244;50.044;9.006;2023-06-04T03:56:17;3.08;;;1.75;;
16272;SDS011;8244;50.044;9.006;2023-06-04T04:01:20;4.38;;;1.60;;
16272;SDS011;8244;50.044;9.006;2023-06-04T04:06:24;4.50;;;1.67;;
16272;SDS011;8244;50.044;9.006;2023-06-04T04:11:26;5.72;;;1.80;;
16272;SDS011;8244;50.044;9.006;2023-06-04T04:16:29;7.07;;;1.80;;
16272;SDS011;8244;50.044;9.006;2023-06-04T04:21:30;3.17;;;1.63;;
16272;SDS011;8244;50.044;9.006;2023-06-04T04:26:32;3.78;;;2.00;;
16272;SDS011;8244;50.044;9.006;2023-06-04T04:31:35;8.15;;;2.00;;
16272;SDS011;8244;50.044;9.006;2023-06-04T04:36:38;3.20;;;1.88;;
16272;SDS011;8244;50.044;9.006;2023-06-04T04:41:40;6.00;;;1.80;;
16272;SDS011;8244;50.044;9.006;2023-06-04T04:46:43;3.60;;;1.92;;
16272;SDS011;8244;50.044;9.006;2023-06-04T04:51:45;2.38;;;1.70;;
16272;SDS011;8244;50.044;9.006;2023-06-04T04:56:47;4.25;;;1.70;;
16272;SDS011;8244;50.044;9.006;2023-06-04T05:01:50;6.57;;;1.70;;
16272;SDS011;8244;50.044;9.006;2023-06-04T05:06:51;4.20;;;1.67;;
16272;SDS011;8244;50.044;9.006;2023-06-04T05:11:53;2.53;;;1.58;;
16272;SDS011;8244;50.044;9.006;2023-06-04T05:16:56;3.03;;;1.52;;
16272;SDS011;8244;50.044;9.006;2023-06-04T05:21:58;5.10;;;1.70;;
16272;SDS011;8244;50.044;9.006;2023-06-04T05:27:00;2.78;;;1.73;;
16272;SDS011;8244;50.044;9.006;2023-06-04T05:32:05;4.15;;;1.80;;
16272;SDS011;8244;50.044;9.006;2023-06-04T05:37:07;5.05;;;1.60;;
16272;SDS011;8244;50.044;9.006;2023-06-04T05:42:09;2.17;;;1.50;;
16272;SDS011;8244;50.044;9.006;2023-06-04T05:47:12;3.33;;;1.90;;
16272;SDS011;8244;50.044;9.006;2023-06-04T05:52:14;3.88;;;1.70;;
16272;SDS011;8244;50.044;9.006;2023-06-04T05:57:15;2.35;;;1.55;;
16272;SDS011;8244;50.044;9.006;2023-06-04T06:02:18;1.98;;;1.48;;
16272;SDS011;8244;50.044;9.006;2023-06-04T06:07:20;2.70;;;1.77;;
16272;SDS011;8244;50.044;9.006;2023-06-04T06:12:22;2.97;;;1.60;;
16272;SDS011;8244;50.044;9.006;2023-06-04T06:17:25;2.08;;;1.50;;
16272;SDS011;8244;50.044;9.006;2023-06-04T06:22:28;3.70;;;1.50;;
16272;SDS011;8244;50.044;9.006;2023-06-04T06:27:30;4.43;;;1.60;;
16272;SDS011;8244;50.044;9.006;2023-06-04T06:32:33;2.67;;;1.55;;
16272;SDS011;8244;50.044;9.006;2023-06-04T06:37:35;4.20;;;1.35;;
16272;SDS011;8244;50.044;9.006;2023-06-04T06:42:41;3.90;;;1.70;;
16272;SDS011;8244;50.044;9.006;2023-06-04T06:47:45;5.38;;;1.77;;
16272;SDS011;8244;50.044;9.006;2023-06-04T06:52:46;2.58;;;1.50;;
16272;SDS011;8244;50.044;9.006;2023-06-04T06:57:48;3.70;;;1.50;;
16272;SDS011;8244;50.044;9.006;2023-06-04T07:02:51;4.95;;;1.63;;
16272;SDS011;8244;50.044;9.006;2023-06-04T07:07:53;2.50;;;1.60;;
16272;SDS011;8244;50.044;9.006;2023-06-04T07:12:57;3.00;;;1.58;;
16272;SDS011;8244;50.044;9.006;2023-06-04T07:18:00;2.05;;;1.42;;
16272;SDS011;8244;50.044;9.006;2023-06-04T07:23:02;4.38;;;1.40;;
16272;SDS011;8244;50.044;9.006;2023-06-04T07:28:03;2.20;;;1.50;;
16272;SDS011;8244;50.044;9.006;2023-06-04T07:33:06;4.20;;;1.55;;
16272;SDS011;8244;50.044;9.006;2023-06-04T07:38:08;2.47;;;1.55;;
16272;SDS011;8244;50.044;9.006;2023-06-04T07:43:10;3.40;;;1.50;;
16272;SDS011;8244;50.044;9.006;2023-06-04T07:48:14;5.07;;;1.63;;
16272;SDS011;8244;50.044;9.006;2023-06-04T07:53:16;2.75;;;1.60;;
16272;SDS011;8244;50.044;9.006;2023-06-04T07:58:18;2.13;;;1.60;;
16272;SDS011;8244;50.044;9.006;2023-06-04T08:03:21;4.13;;;1.50;;
16272;SDS011;8244;50.044;9.006;2023-06-04T08:08:24;2.00;;;1.30;;
16272;SDS011;8244;50.044;9.006;2023-06-04T08:13:26;4.05;;;1.50;;
16272;SDS011;8244;50.044;9.006;2023-06-04T08:18:29;1.75;;;1.35;;
16272;SDS011;8244;50.044;9.006;2023-06-04T08:23:31;3.85;;;1.60;;
16272;SDS011;8244;50.044;9.006;2023-06-04T08:28:32;5.88;;;1.48;;
16272;SDS011;8244;50.044;9.006;2023-06-04T08:33:35;1.85;;;1.70;;
16272;SDS011;8244;50.044;9.006;2023-06-04T08:38:37;6.22;;;1.77;;
16272;SDS011;8244;50.044;9.006;2023-06-04T08:43:39;4.15;;;1.90;;
16272;SDS011;8244;50.044;9.006;2023-06-04T08:48:45;3.22;;;1.50;;
16272;SDS011;8244;50.044;9.006;2023-06-04T08:53:49;2.10;;;1.50;;
16272;SDS011;8244;50.044;9.006;2023-06-04T08:58:54;1.75;;;1.50;;
16272;SDS011;8244;50.044;9.006;2023-06-04T09:04:03;3.22;;;1.50;;
16272;SDS011;8244;50.044;9.006;2023-06-04T09:09:07;2.70;;;1.40;;
16272;SDS011;8244;50.044;9.006;2023-06-04T09:14:11;1.60;;;1.50;;
16272;SDS011;8244;50.044;9.006;2023-06-04T09:19:18;2.97;;;1.60;;
16272;SDS011;8244;50.044;9.006;2023-06-04T09:24:21;2.42;;;1.45;;
16272;SDS011;8244;50.044;9.006;2023-06-04T09:29:24;5.13;;;1.55;;
16272;SDS011;8244;50.044;9.006;2023-06-04T09:34:29;2.50;;;1.50;;
16272;SDS011;8244;50.044;9.006;2023-06-04T09:39:31;3.33;;;1.50;;
16272;SDS011;8244;50.044;9.006;2023-06-04T09:44:42;2.28;;;1.33;;
16272;SDS011;8244;50.044;9.006;2023-06-04T09:49:46;2.28;;;1.60;;
16272;SDS011;8244;50.044;9.006;2023-06-04T09:54:50;2.45;;;1.30;;
16272;SDS011;8244;50.044;9.006;2023-06-04T09:59:51;4.85;;;1.58;;
16272;SDS011;8244;50.044;9.006;2023-06-04T10:04:56;2.78;;;1.60;;
16272;SDS011;8244;50.044;9.006;2023-06-04T10:10:00;2.55;;;1.50;;
16272;SDS011;8244;50.044;9.006;2023-06-04T10:15:05;1.95;;;1.30;;
16272;SDS011;8244;50.044;9.006;2023-06-04T10:20:12;3.10;;;1.50;;
16272;SDS011;8244;50.044;9.006;2023-06-04T10:25:15;4.18;;;1.52;;
16272;SDS011;8244;50.044;9.006;2023-06-04T10:30:17;1.58;;;1.48;;
16272;SDS011;8244;50.044;9.006;2023-06-04T10:35:30;4.28;;;1.50;;
16272;SDS011;8244;50.044;9.006;2023-06-04T10:40:32;4.32;;;1.80;;
16272;SDS011;8244;50.044;9.006;2023-06-04T10:45:34;2.25;;;1.45;;
16272;SDS011;8244;50.044;9.006;2023-06-04T10:50:48;3.08;;;1.50;;
16272;SDS011;8244;50.044;9.006;2023-06-04T10:55:52;2.17;;;1.60;;
16272;SDS011;8244;50.044;9.006;2023-06-04T11:00:54;5.28;;;1.60;;
16272;SDS011;8244;50.044;9.006;2023-06-04T11:05:57;3.83;;;1.52;;
16272;SDS011;8244;50.044;9.006;2023-06-04T11:11:09;2.78;;;1.50;;
16272;SDS011;8244;50.044;9.006;2023-06-04T11:16:15;4.68;;;1.70;;
16272;SDS011;8244;50.044;9.006;2023-06-04T11:21:19;1.70;;;1.40;;
16272;SDS011;8244;50.044;9.006;2023-06-04T11:26:21;2.58;;;1.48;;
16272;SDS011;8244;50.044;9.006;2023-06-04T11:31:25;3.63;;;1.58;;
16272;SDS011;8244;50.044;9.006;2023-06-04T11:36:29;3.28;;;1.70;;
16272;SDS011;8244;50.044;9.006;2023-06-04T11:41:33;2.72;;;1.45;;
16272;SDS011;8244;50.044;9.006;2023-06-04T11:46:39;3.80;;;1.65;;
16272;SDS011;8244;50.044;9.006;2023-06-04T11:51:46;2.72;;;1.58;;
16272;SDS011;8244;50.044;9.006;2023-06-04T11:56:48;3.17;;;1.80;;
16272;SDS011;8244;50.044;9.006;2023-06-04T12:01:51;3.63;;;1.70;;
16272;SDS011;8244;50.044;9.006;2023-06-04T12:06:55;3.63;;;1.60;;
16272;SDS011;8244;50.044;9.006;2023-06-04T12:11:58;5.07;;;1.70;;
16272;SDS011;8244;50.044;9.006;2023-06-04T12:17:01;2.28;;;1.83;;
16272;SDS011;8244;50.044;9.006;2023-06-04T12:22:05;5.15;;;1.70;;
16272;SDS011;8244;50.044;9.006;2023-06-04T12:27:08;2.22;;;1.48;;
16272;SDS011;8244;50.044;9.006;2023-06-04T12:32:11;3.85;;;1.60;;
16272;SDS011;8244;50.044;9.006;2023-06-04T12:37:14;3.08;;;1.63;;
16272;SDS011;8244;50.044;9.006;2023-06-04T12:42:15;2.42;;;1.70;;
16272;SDS011;8244;50.044;9.006;2023-06-04T12:47:19;3.55;;;1.70;;
16272;SDS011;8244;50.044;9.006;2023-06-04T12:52:22;2.15;;;1.50;;
16272;SDS011;8244;50.044;9.006;2023-06-04T12:57:24;2.95;;;1.70;;
16272;SDS011;8244;50.044;9.006;2023-06-04T13:02:25;3.28;;;1.60;;
16272;SDS011;8244;50.044;9.006;2023-06-04T13:07:29;3.88;;;1.70;;
16272;SDS011;8244;50.044;9.006;2023-06-04T13:12:30;1.80;;;1.70;;
16272;SDS011;8244;50.044;9.006;2023-06-04T13:17:32;2.90;;;1.75;;
16272;SDS011;8244;50.044;9.006;2023-06-04T13:22:35;4.97;;;1.88;;
16272;SDS011;8244;50.044;9.006;2023-06-04T13:27:37;4.70;;;1.83;;
16272;SDS011;8244;50.044;9.006;2023-06-04T13:32:39;2.17;;;1.63;;
16272;SDS011;8244;50.044;9.006;2023-06-04T13:37:42;3.17;;;1.88;;
16272;SDS011;8244;50.044;9.006;2023-06-04T13:42:44;1.88;;;1.58;;
16272;SDS011;8244;50.044;9.006;2023-06-04T13:47:46;1.92;;;1.70;;
16272;SDS011;8244;50.044;9.006;2023-06-04T13:52:50;3.05;;;1.63;;
16272;SDS011;8244;50.044;9.006;2023-06-04T13:57:52;3.13;;;1.50;;
16272;SDS011;8244;50.044;9.006;2023-06-04T14:02:54;2.20;;;1.83;;
16272;SDS011;8244;50.044;9.006;2023-06-04T14:07:57;2.05;;;1.50;;
16272;SDS011;8244;50.044;9.006;2023-06-04T14:12:59;3.35;;;1.60;;
16272;SDS011;8244;50.044;9.006;2023-06-04T14:18:01;3.72;;;1.73;;
16272;SDS011;8244;50.044;9.006;2023-06-04T14:23:04;3.20;;;1.60;;
16272;SDS011;8244;50.044;9.006;2023-06-04T14:28:06;2.95;;;1.70;;
16272;SDS011;8244;50.044;9.006;2023-06-04T14:33:08;2.50;;;1.75;;
16272;SDS011;8244;50.044;9.006;2023-06-04T14:38:11;1.60;;;1.50;;
16272;SDS011;8244;50.044;9.006;2023-06-04T14:43:13;2.15;;;1.77;;
16272;SDS011;8244;50.044;9.006;2023-06-04T14:48:14;3.53;;;1.70;;
16272;SDS011;8244;50.044;9.006;2023-06-04T14:53:18;2.17;;;1.60;;
16272;SDS011;8244;50.044;9.006;2023-06-04T14:58:20;3.45;;;1.92;;
16272;SDS011;8244;50.044;9.006;2023-06-04T15:03:21;4.03;;;1.80;;
16272;SDS011;8244;50.044;9.006;2023-06-04T15:08:24;4.78;;;2.10;;
16272;SDS011;8244;50.044;9.006;2023-06-04T15:13:26;6.00;;;2.00;;
16272;SDS011;8244;50.044;9.006;2023-06-04T15:18:28;6.43;;;2.30;;
16272;SDS011;8244;50.044;9.006;2023-06-04T15:23:31;2.47;;;1.67;;
16272;SDS011;8244;50.044;9.006;2023-06-04T15:28:33;4.10;;;2.22;;
16272;SDS011;8244;50.044;9.006;2023-06-04T15:33:34;4.30;;;2.20;;
16272;SDS011;8244;50.044;9.006;2023-06-04T15:38:38;2.20;;;2.00;;
16272;SDS011;8244;50.044;9.006;2023-06-04T15:43:40;8.77;;;2.22;;
16272;SDS011;8244;50.044;9.006;2023-06-04T15:48:42;5.70;;;2.40;;
16272;SDS011;8244;50.044;9.006;2023-06-04T15:53:45;3.22;;;2.30;;
16272;SDS011;8244;50.044;9.006;2023-06-04T15:58:46;4.47;;;2.50;;
16272;SDS011;8244;50.044;9.006;2023-06-04T16:03:49;3.70;;;2.55;;
16272;SDS011;8244;50.044;9.006;2023-06-04T16:08:53;3.80;;;2.30;;
16272;SDS011;8244;50.044;9.006;2023-06-04T16:13:55;5.25;;;2.67;;
16272;SDS011;8244;50.044;9.006;2023-06-04T16:18:57;6.78;;;3.05;;
16272;SDS011;8244;50.044;9.006;2023-06-04T16:24:00;3.28;;;2.60;;
16272;SDS011;8244;50.044;9.006;2023-06-04T16:29:02;3.40;;;2.50;;
16272;SDS011;8244;50.044;9.006;2023-06-04T16:34:04;2.90;;;2.60;;
16272;SDS011;8244;50.044;9.006;2023-06-04T16:39:08;5.25;;;2.80;;
16272;SDS011;8244;50.044;9.006;2023-06-04T16:44:10;8.98;;;2.92;;
16272;SDS011;8244;50.044;9.006;2023-06-04T16:49:12;7.82;;;3.00;;
16272;SDS011;8244;50.044;9.006;2023-06-04T16:54:15;5.60;;;2.80;;
16272;SDS011;8244;50.044;9.006;2023-06-04T16:59:18;6.57;;;3.20;;
16272;SDS011;8244;50.044;9.006;2023-06-04T17:04:20;4.00;;;2.80;;
16272;SDS011;8244;50.044;9.006;2023-06-04T17:09:23;4.28;;;2.42;;
16272;SDS011;8244;50.044;9.006;2023-06-04T17:14:24;4.53;;;2.50;;
16272;SDS011;8244;50.044;9.006;2023-06-04T17:19:26;3.42;;;2.35;;
16272;SDS011;8244;50.044;9.006;2023-06-04T17:24:32;5.40;;;2.50;;
16272;SDS011;8244;50.044;9.006;2023-06-04T17:29:34;5.20;;;2.20;;
16272;SDS011;8244;50.044;9.006;2023-06-04T17:34:36;4.53;;;2.38;;
16272;SDS011;8244;50.044;9.006;2023-06-04T17:39:39;4.32;;;2.22;;
16272;SDS011;8244;50.044;9.006;2023-06-04T17:44:41;4.05;;;2.25;;
16272;SDS011;8244;50.044;9.006;2023-06-04T17:49:43;6.28;;;2.10;;
16272;SDS011;8244;50.044;9.006;2023-06-04T17:54:46;3.85;;;2.30;;
16272;SDS011;8244;50.044;9.006;2023-06-04T17:59:49;4.53;;;1.90;;
16272;SDS011;8244;50.044;9.006;2023-06-04T18:04:51;3.88;;;1.92;;
16272;SDS011;8244;50.044;9.006;2023-06-04T18:09:54;3.17;;;1.90;;
16272;SDS011;8244;50.044;9.006;2023-06-04T18:14:56;4.63;;;2.10;;
16272;SDS011;8244;50.044;9.006;2023-06-04T18:19:58;5.72;;;2.10;;
16272;SDS011;8244;50.044;9.006;2023-06-04T18:25:01;3.53;;;1.77;;
16272;SDS011;8244;50.044;9.006;2023-06-04T18:30:03;4.18;;;2.20;;
16272;SDS011;8244;50.044;9.006;2023-06-04T18:35:07;2.85;;;1.80;;
16272;SDS011;8244;50.044;9.006;2023-06-04T18:40:12;4.13;;;2.10;;
16272;SDS011;8244;50.044;9.006;2023-06-04T18:45:15;5.60;;;1.90;;
16272;SDS011;8244;50.044;9.006;2023-06-04T18:50:17;4.07;;;2.13;;
16272;SDS011;8244;50.044;9.006;2023-06-04T18:55:20;4.25;;;1.80;;
16272;SDS011;8244;50.044;9.006;2023-06-04T19:00:22;2.53;;;1.85;;
16272;SDS011;8244;50.044;9.006;2023-06-04T19:05:28;2.33;;;1.73;;
16272;SDS011;8244;50.044;9.006;2023-06-04T19:10:31;2.50;;;1.90;;
16272;SDS011;8244;50.044;9.006;2023-06-04T19:15:33;6.30;;;1.70;;
16272;SDS011;8244;50.044;9.006;2023-06-04T19:20:34;1.77;;;1.63;;
16272;SDS011;8244;50.044;9.006;2023-06-04T19:25:37;2.95;;;1.77;;
16272;SDS011;8244;50.044;9.006;2023-06-04T19:30:39;4.55;;;1.83;;
16272;SDS011;8244;50.044;9.006;2023-06-04T19:35:41;5.95;;;2.00;;
16272;SDS011;8244;50.044;9.006;2023-06-04T19:40:44;4.22;;;1.77;;
16272;SDS011;8244;50.044;9.006;2023-06-04T19:45:46;5.95;;;1.75;;
16272;SDS011;8244;50.044;9.006;2023-06-04T19:50:49;3.28;;;1.90;;
16272;SDS011;8244;50.044;9.006;2023-06-04T19:55:52;4.97;;;1.98;;
16272;SDS011;8244;50.044;9.006;2023-06-04T20:00:54;2.17;;;1.67;;
16272;SDS011;8244;50.044;9.006;2023-06-04T20:05:55;3.33;;;1.90;;
16272;SDS011;8244;50.044;9.006;2023-06-04T20:10:59;4.53;;;1.88;;
16272;SDS011;8244;50.044;9.006;2023-06-04T20:16:01;3.97;;;1.77;;
16272;SDS011;8244;50.044;9.006;2023-06-04T20:21:04;4.65;;;1.65;;
16272;SDS011;8244;50.044;9.006;2023-06-04T20:26:08;2.55;;;1.80;;
16272;SDS011;8244;50.044;9.006;2023-06-04T20:31:10;2.03;;;1.70;;
16272;SDS011;8244;50.044;9.006;2023-06-04T20:36:12;3.95;;;1.92;;
16272;SDS011;8244;50.044;9.006;2023-06-04T20:41:15;3.47;;;1.55;;
16272;SDS011;8244;50.044;9.006;2023-06-04T20:46:17;3.13;;;1.73;;
16272;SDS011;8244;50.044;9.006;2023-06-04T20:51:19;4.85;;;1.80;;
16272;SDS011;8244;50.044;9.006;2023-06-04T20:56:22;3.47;;;1.80;;
16272;SDS011;8244;50.044;9.006;2023-06-04T21:01:25;4.07;;;1.67;;
16272;SDS011;8244;50.044;9.006;2023-06-04T21:06:27;3.88;;;1.70;;
16272;SDS011;8244;50.044;9.006;2023-06-04T21:11:31;5.68;;;2.00;;
16272;SDS011;8244;50.044;9.006;2023-06-04T21:16:33;3.67;;;1.58;;
16272;SDS011;8244;50.044;9.006;2023-06-04T21:21:34;4.13;;;1.70;;
16272;SDS011;8244;50.044;9.006;2023-06-04T21:26:39;5.32;;;1.80;;
16272;SDS011;8244;50.044;9.006;2023-06-04T21:31:41;4.75;;;1.67;;
16272;SDS011;8244;50.044;9.006;2023-06-04T21:36:42;1.95;;;1.70;;
16272;SDS011;8244;50.044;9.006;2023-06-04T21:41:45;3.38;;;1.80;;
16272;SDS011;8244;50.044;9.006;2023-06-04T21:46:47;2.92;;;1.80;;
16272;SDS011;8244;50.044;9.006;2023-06-04T21:51:49;2.92;;;1.80;;
16272;SDS011;8244;50.044;9.006;2023-06-04T21:56:52;2.58;;;1.65;;
16272;SDS011;8244;50.044;9.006;2023-06-04T22:01:54;3.78;;;1.70;;
16272;SDS011;8244;50.044;9.006;2023-06-04T22:06:57;1.77;;;1.45;;
16272;SDS011;8244;50.044;9.006;2023-06-04T22:12:00;2.33;;;1.60;;
16272;SDS011;8244;50.044;9.006;2023-06-04T22:17:02;2.40;;;1.63;;
16272;SDS011;8244;50.044;9.006;2023-06-04T22:22:04;2.85;;;1.83;;
16272;SDS011;8244;50.044;9.006;2023-06-04T22:27:07;1.92;;;1.73;;
16272;SDS011;8244;50.044;9.006;2023-06-04T22:32:09;3.13;;;1.60;;
16272;SDS011;8244;50.044;9.006;2023-06-04T22:37:11;4.47;;;1.58;;
16272;SDS011;8244;50.044;9.006;2023-06-04T22:42:14;3.90;;;1.85;;
16272;SDS011;8244;50.044;9.006;2023-06-04T22:47:15;1.83;;;1.60;;
16272;SDS011;8244;50.044;9.006;2023-06-04T22:52:17;2.63;;;1.73;;
16272;SDS011;8244;50.044;9.006;2023-06-04T22:57:21;2.17;;;1.52;;
16272;SDS011;8244;50.044;9.006;2023-06-04T23:02:22;2.15;;;1.55;;
16272;SDS011;8244;50.044;9.006;2023-06-04T23:07:24;2.40;;;1.65;;
16272;SDS011;8244;50.044;9.006;2023-06-04T23:12:27;3.67;;;1.95;;
16272;SDS011;8244;50.044;9.006;2023-06-04T23:17:29;2.78;;;1.73;;
16272;SDS011;8244;50.044;9.006;2023-06-04T23:22:31;3.92;;;1.70;;
16272;SDS011;8244;50.044;9.006;2023-06-04T23:27:34;4.28;;;1.98;;
16272;SDS011;8244;50.044;9.006;2023-06-04T23:32:36;3.10;;;1.58;;
16272;SDS011;8244;50.044;9.006;2023-06-04T23:37:38;4.90;;;1.85;;
16272;SDS011;8244;50.044;9.006;2023-06-04T23:42:41;2.50;;;1.67;;
16272;SDS011;8244;50.044;9.006;2023-06-04T23:47:42;2.03;;;1.70;;
16272;SDS011;8244;50.044;9.006;2023-06-04T23:52:44;2.85;;;1.98;;
16272;SDS011;8244;50.044;9.006;2023-06-04T23:57:47;2.65;;;1.90;;
